sensor_id;sensor_type;location;lat;lon;timestamp;P1;durP1;ratioP1;P2;durP2;ratioP2
71265;SDS011;59030;52.052;8.550;2022-08-25T00:01:09;5.93;;;2.70;;
71265;SDS011;59030;52.052;8.550;2022-08-25T00:03:36;3.70;;;2.90;;
71265;SDS011;59030;52.052;8.550;2022-08-25T00:06:04;4.47;;;2.80;;
71265;SDS011;59030;52.052;8.550;2022-08-25T00:08:32;3.77;;;2.90;;
71265;SDS011;59030;52.052;8.550;2022-08-25T00:11:01;2.90;;;2.37;;
71265;SDS011;59030;52.052;8.550;2022-08-25T00:13:29;3.93;;;2.50;;
71265;SDS011;59030;52.052;8.550;2022-08-25T00:15:56;3.43;;;2.43;;
71265;SDS011;59030;52.052;8.550;2022-08-25T00:18:23;5.10;;;2.77;;
71265;SDS011;59030;52.052;8.550;2022-08-25T00:20:51;3.97;;;2.60;;
71265;SDS011;59030;52.052;8.550;2022-08-25T00:23:18;3.20;;;2.60;;
71265;SDS011;59030;52.052;8.550;2022-08-25T00:25:46;3.47;;;2.70;;
71265;SDS011;59030;52.052;8.550;2022-08-25T00:28:13;3.43;;;2.60;;
71265;SDS011;59030;52.052;8.550;2022-08-25T00:30:41;3.77;;;2.90;;
71265;SDS011;59030;52.052;8.550;2022-08-25T00:33:09;3.73;;;2.73;;
71265;SDS011;59030;52.052;8.550;2022-08-25T00:35:37;4.63;;;2.53;;
71265;SDS011;59030;52.052;8.550;2022-08-25T00:38:06;3.37;;;2.60;;
71265;SDS011;59030;52.052;8.550;2022-08-25T00:40:34;4.57;;;2.90;;
71265;SDS011;59030;52.052;8.550;2022-08-25T00:43:02;5.10;;;3.00;;
71265;SDS011;59030;52.052;8.550;2022-08-25T00:45:31;4.67;;;2.83;;
71265;SDS011;59030;52.052;8.550;2022-08-25T00:47:59;4.50;;;2.97;;
71265;SDS011;59030;52.052;8.550;2022-08-25T00:50:27;4.70;;;3.10;;
71265;SDS011;59030;52.052;8.550;2022-08-25T00:52:55;3.93;;;3.27;;
71265;SDS011;59030;52.052;8.550;2022-08-25T00:55:24;3.70;;;3.30;;
71265;SDS011;59030;52.052;8.550;2022-08-25T00:57:53;5.97;;;3.50;;
71265;SDS011;59030;52.052;8.550;2022-08-25T01:00:22;5.90;;;3.50;;
71265;SDS011;59030;52.052;8.550;2022-08-25T01:02:50;7.70;;;3.50;;
71265;SDS011;59030;52.052;8.550;2022-08-25T01:05:17;5.47;;;3.40;;
71265;SDS011;59030;52.052;8.550;2022-08-25T01:07:46;3.40;;;3.10;;
71265;SDS011;59030;52.052;8.550;2022-08-25T01:10:14;5.47;;;3.20;;
71265;SDS011;59030;52.052;8.550;2022-08-25T01:12:43;6.07;;;3.40;;
71265;SDS011;59030;52.052;8.550;2022-08-25T01:15:11;5.07;;;3.70;;
71265;SDS011;59030;52.052;8.550;2022-08-25T01:17:44;6.43;;;3.63;;
71265;SDS011;59030;52.052;8.550;2022-08-25T01:20:09;5.97;;;3.60;;
71265;SDS011;59030;52.052;8.550;2022-08-25T01:22:37;5.07;;;3.40;;
71265;SDS011;59030;52.052;8.550;2022-08-25T01:25:06;4.00;;;3.60;;
71265;SDS011;59030;52.052;8.550;2022-08-25T01:27:34;4.80;;;3.53;;
71265;SDS011;59030;52.052;8.550;2022-08-25T01:30:03;5.47;;;4.33;;
71265;SDS011;59030;52.052;8.550;2022-08-25T01:32:32;4.00;;;3.30;;
71265;SDS011;59030;52.052;8.550;2022-08-25T01:35:00;5.17;;;3.37;;
71265;SDS011;59030;52.052;8.550;2022-08-25T01:37:27;3.97;;;3.40;;
71265;SDS011;59030;52.052;8.550;2022-08-25T01:39:56;4.87;;;3.60;;
71265;SDS011;59030;52.052;8.550;2022-08-25T01:42:36;5.73;;;3.50;;
71265;SDS011;59030;52.052;8.550;2022-08-25T01:45:02;6.77;;;4.40;;
71265;SDS011;59030;52.052;8.550;2022-08-25T01:47:31;5.43;;;3.60;;
71265;SDS011;59030;52.052;8.550;2022-08-25T01:49:58;5.47;;;3.70;;
71265;SDS011;59030;52.052;8.550;2022-08-25T01:52:28;5.77;;;3.97;;
71265;SDS011;59030;52.052;8.550;2022-08-25T01:54:55;4.93;;;3.83;;
71265;SDS011;59030;52.052;8.550;2022-08-25T01:57:23;3.70;;;3.30;;
71265;SDS011;59030;52.052;8.550;2022-08-25T01:59:50;4.50;;;3.40;;
71265;SDS011;59030;52.052;8.550;2022-08-25T02:02:18;3.47;;;3.17;;
71265;SDS011;59030;52.052;8.550;2022-08-25T02:04:45;5.07;;;3.63;;
71265;SDS011;59030;52.052;8.550;2022-08-25T02:07:12;4.10;;;3.30;;
71265;SDS011;59030;52.052;8.550;2022-08-25T02:09:40;5.50;;;3.50;;
71265;SDS011;59030;52.052;8.550;2022-08-25T02:12:07;6.00;;;3.60;;
71265;SDS011;59030;52.052;8.550;2022-08-25T02:14:35;4.90;;;3.50;;
71265;SDS011;59030;52.052;8.550;2022-08-25T02:17:03;4.93;;;3.90;;
71265;SDS011;59030;52.052;8.550;2022-08-25T02:19:30;4.10;;;3.70;;
71265;SDS011;59030;52.052;8.550;2022-08-25T02:21:58;6.00;;;3.60;;
71265;SDS011;59030;52.052;8.550;2022-08-25T02:24:26;4.97;;;3.57;;
71265;SDS011;59030;52.052;8.550;2022-08-25T02:26:53;5.03;;;4.10;;
71265;SDS011;59030;52.052;8.550;2022-08-25T02:29:20;6.50;;;3.80;;
71265;SDS011;59030;52.052;8.550;2022-08-25T02:31:48;4.93;;;3.53;;
71265;SDS011;59030;52.052;8.550;2022-08-25T02:34:16;7.27;;;4.00;;
71265;SDS011;59030;52.052;8.550;2022-08-25T02:36:43;4.40;;;4.00;;
71265;SDS011;59030;52.052;8.550;2022-08-25T02:39:10;6.23;;;4.40;;
71265;SDS011;59030;52.052;8.550;2022-08-25T02:41:38;4.07;;;3.63;;
71265;SDS011;59030;52.052;8.550;2022-08-25T02:44:07;5.87;;;3.90;;
71265;SDS011;59030;52.052;8.550;2022-08-25T02:46:34;6.07;;;4.20;;
71265;SDS011;59030;52.052;8.550;2022-08-25T02:49:02;4.10;;;3.70;;
71265;SDS011;59030;52.052;8.550;2022-08-25T02:51:30;5.67;;;3.90;;
71265;SDS011;59030;52.052;8.550;2022-08-25T02:53:57;4.83;;;4.13;;
71265;SDS011;59030;52.052;8.550;2022-08-25T02:56:26;4.63;;;4.23;;
71265;SDS011;59030;52.052;8.550;2022-08-25T02:58:54;10.83;;;4.10;;
71265;SDS011;59030;52.052;8.550;2022-08-25T03:01:22;9.97;;;4.43;;
71265;SDS011;59030;52.052;8.550;2022-08-25T03:03:49;6.20;;;5.03;;
71265;SDS011;59030;52.052;8.550;2022-08-25T03:06:18;7.00;;;5.40;;
71265;SDS011;59030;52.052;8.550;2022-08-25T03:08:47;7.30;;;5.03;;
71265;SDS011;59030;52.052;8.550;2022-08-25T03:11:15;7.10;;;5.40;;
71265;SDS011;59030;52.052;8.550;2022-08-25T03:13:43;7.50;;;5.00;;
71265;SDS011;59030;52.052;8.550;2022-08-25T03:16:11;6.70;;;5.00;;
71265;SDS011;59030;52.052;8.550;2022-08-25T03:18:39;8.20;;;5.10;;
71265;SDS011;59030;52.052;8.550;2022-08-25T03:21:08;7.57;;;4.83;;
71265;SDS011;59030;52.052;8.550;2022-08-25T03:23:36;11.10;;;5.27;;
71265;SDS011;59030;52.052;8.550;2022-08-25T03:26:04;6.37;;;5.17;;
71265;SDS011;59030;52.052;8.550;2022-08-25T03:28:49;11.17;;;5.60;;
71265;SDS011;59030;52.052;8.550;2022-08-25T03:31:17;7.13;;;5.57;;
71265;SDS011;59030;52.052;8.550;2022-08-25T03:33:44;9.57;;;5.50;;
71265;SDS011;59030;52.052;8.550;2022-08-25T03:36:12;6.93;;;5.40;;
71265;SDS011;59030;52.052;8.550;2022-08-25T03:38:39;6.97;;;5.07;;
71265;SDS011;59030;52.052;8.550;2022-08-25T03:41:11;6.27;;;4.57;;
71265;SDS011;59030;52.052;8.550;2022-08-25T03:43:40;6.83;;;4.87;;
71265;SDS011;59030;52.052;8.550;2022-08-25T03:46:07;7.43;;;4.70;;
71265;SDS011;59030;52.052;8.550;2022-08-25T03:48:35;6.20;;;4.90;;
71265;SDS011;59030;52.052;8.550;2022-08-25T03:51:02;6.67;;;5.23;;
71265;SDS011;59030;52.052;8.550;2022-08-25T03:53:30;5.33;;;4.67;;
71265;SDS011;59030;52.052;8.550;2022-08-25T03:55:57;6.53;;;4.67;;
71265;SDS011;59030;52.052;8.550;2022-08-25T03:58:26;5.87;;;4.50;;
71265;SDS011;59030;52.052;8.550;2022-08-25T04:00:54;10.13;;;4.63;;
71265;SDS011;59030;52.052;8.550;2022-08-25T04:03:23;5.70;;;4.60;;
71265;SDS011;59030;52.052;8.550;2022-08-25T04:05:50;5.43;;;4.43;;
71265;SDS011;59030;52.052;8.550;2022-08-25T04:08:18;6.50;;;4.20;;
71265;SDS011;59030;52.052;8.550;2022-08-25T04:10:45;8.43;;;4.50;;
71265;SDS011;59030;52.052;8.550;2022-08-25T04:13:13;5.03;;;4.13;;
71265;SDS011;59030;52.052;8.550;2022-08-25T04:15:41;5.13;;;4.57;;
71265;SDS011;59030;52.052;8.550;2022-08-25T04:18:09;5.23;;;4.33;;
71265;SDS011;59030;52.052;8.550;2022-08-25T04:20:38;6.10;;;4.20;;
71265;SDS011;59030;52.052;8.550;2022-08-25T04:23:08;8.60;;;4.30;;
71265;SDS011;59030;52.052;8.550;2022-08-25T04:25:39;5.07;;;4.00;;
71265;SDS011;59030;52.052;8.550;2022-08-25T04:28:07;5.33;;;4.13;;
71265;SDS011;59030;52.052;8.550;2022-08-25T04:30:34;7.50;;;4.33;;
71265;SDS011;59030;52.052;8.550;2022-08-25T04:33:02;5.40;;;4.47;;
71265;SDS011;59030;52.052;8.550;2022-08-25T04:35:29;4.73;;;4.27;;
71265;SDS011;59030;52.052;8.550;2022-08-25T04:37:56;5.63;;;4.63;;
71265;SDS011;59030;52.052;8.550;2022-08-25T04:40:24;5.07;;;4.50;;
71265;SDS011;59030;52.052;8.550;2022-08-25T04:42:51;5.83;;;4.13;;
71265;SDS011;59030;52.052;8.550;2022-08-25T04:45:19;5.37;;;4.50;;
71265;SDS011;59030;52.052;8.550;2022-08-25T04:47:46;6.30;;;4.70;;
71265;SDS011;59030;52.052;8.550;2022-08-25T04:50:14;4.80;;;4.30;;
71265;SDS011;59030;52.052;8.550;2022-08-25T04:52:41;7.00;;;4.47;;
71265;SDS011;59030;52.052;8.550;2022-08-25T04:55:09;6.77;;;4.47;;
71265;SDS011;59030;52.052;8.550;2022-08-25T04:57:36;6.13;;;4.33;;
71265;SDS011;59030;52.052;8.550;2022-08-25T05:00:05;6.50;;;4.00;;
71265;SDS011;59030;52.052;8.550;2022-08-25T05:02:33;4.70;;;4.20;;
71265;SDS011;59030;52.052;8.550;2022-08-25T05:05:01;8.63;;;4.57;;
71265;SDS011;59030;52.052;8.550;2022-08-25T05:07:29;5.73;;;4.23;;
71265;SDS011;59030;52.052;8.550;2022-08-25T05:09:56;7.20;;;4.50;;
71265;SDS011;59030;52.052;8.550;2022-08-25T05:12:24;7.07;;;4.20;;
71265;SDS011;59030;52.052;8.550;2022-08-25T05:14:51;4.87;;;4.33;;
71265;SDS011;59030;52.052;8.550;2022-08-25T05:17:19;6.57;;;4.77;;
71265;SDS011;59030;52.052;8.550;2022-08-25T05:19:46;8.67;;;4.57;;
71265;SDS011;59030;52.052;8.550;2022-08-25T05:22:13;7.70;;;4.93;;
71265;SDS011;59030;52.052;8.550;2022-08-25T05:24:41;7.43;;;4.47;;
71265;SDS011;59030;52.052;8.550;2022-08-25T05:27:08;7.70;;;4.30;;
71265;SDS011;59030;52.052;8.550;2022-08-25T05:29:36;5.80;;;4.40;;
71265;SDS011;59030;52.052;8.550;2022-08-25T05:32:03;7.50;;;4.10;;
71265;SDS011;59030;52.052;8.550;2022-08-25T05:34:30;5.07;;;3.73;;
71265;SDS011;59030;52.052;8.550;2022-08-25T05:36:58;8.70;;;4.57;;
71265;SDS011;59030;52.052;8.550;2022-08-25T05:39:27;5.40;;;4.47;;
71265;SDS011;59030;52.052;8.550;2022-08-25T05:41:56;5.57;;;4.40;;
71265;SDS011;59030;52.052;8.550;2022-08-25T05:44:24;7.43;;;4.40;;
71265;SDS011;59030;52.052;8.550;2022-08-25T05:46:52;5.73;;;4.40;;
71265;SDS011;59030;52.052;8.550;2022-08-25T05:49:20;7.53;;;4.57;;
71265;SDS011;59030;52.052;8.550;2022-08-25T05:51:49;8.83;;;4.47;;
71265;SDS011;59030;52.052;8.550;2022-08-25T05:54:17;6.30;;;4.47;;
71265;SDS011;59030;52.052;8.550;2022-08-25T05:56:44;6.33;;;4.47;;
71265;SDS011;59030;52.052;8.550;2022-08-25T05:59:12;4.83;;;4.30;;
71265;SDS011;59030;52.052;8.550;2022-08-25T06:01:39;6.67;;;4.53;;
71265;SDS011;59030;52.052;8.550;2022-08-25T06:04:38;7.23;;;4.70;;
71265;SDS011;59030;52.052;8.550;2022-08-25T06:07:05;8.87;;;5.13;;
71265;SDS011;59030;52.052;8.550;2022-08-25T06:09:32;7.33;;;4.57;;
71265;SDS011;59030;52.052;8.550;2022-08-25T06:12:00;5.53;;;4.33;;
71265;SDS011;59030;52.052;8.550;2022-08-25T06:14:27;8.57;;;4.73;;
71265;SDS011;59030;52.052;8.550;2022-08-25T06:16:56;6.43;;;4.50;;
71265;SDS011;59030;52.052;8.550;2022-08-25T06:19:25;6.97;;;4.40;;
71265;SDS011;59030;52.052;8.550;2022-08-25T06:21:53;6.63;;;4.60;;
71265;SDS011;59030;52.052;8.550;2022-08-25T06:24:21;4.90;;;4.40;;
71265;SDS011;59030;52.052;8.550;2022-08-25T06:26:49;6.43;;;4.83;;
71265;SDS011;59030;52.052;8.550;2022-08-25T06:29:17;5.37;;;4.53;;
71265;SDS011;59030;52.052;8.550;2022-08-25T06:31:45;5.43;;;4.43;;
71265;SDS011;59030;52.052;8.550;2022-08-25T06:34:12;6.70;;;4.90;;
71265;SDS011;59030;52.052;8.550;2022-08-25T06:36:40;5.63;;;4.47;;
71265;SDS011;59030;52.052;8.550;2022-08-25T06:39:07;6.17;;;4.13;;
71265;SDS011;59030;52.052;8.550;2022-08-25T06:41:35;5.13;;;4.63;;
71265;SDS011;59030;52.052;8.550;2022-08-25T06:44:03;6.13;;;4.40;;
71265;SDS011;59030;52.052;8.550;2022-08-25T06:46:30;7.03;;;4.90;;
71265;SDS011;59030;52.052;8.550;2022-08-25T06:48:58;6.37;;;4.73;;
71265;SDS011;59030;52.052;8.550;2022-08-25T06:51:25;8.60;;;4.73;;
71265;SDS011;59030;52.052;8.550;2022-08-25T06:53:53;12.03;;;4.50;;
71265;SDS011;59030;52.052;8.550;2022-08-25T06:56:20;6.63;;;4.80;;
71265;SDS011;59030;52.052;8.550;2022-08-25T06:58:48;8.20;;;4.80;;
71265;SDS011;59030;52.052;8.550;2022-08-25T07:01:16;6.67;;;4.50;;
71265;SDS011;59030;52.052;8.550;2022-08-25T07:03:45;8.13;;;4.80;;
71265;SDS011;59030;52.052;8.550;2022-08-25T07:06:12;6.13;;;4.40;;
71265;SDS011;59030;52.052;8.550;2022-08-25T07:08:40;9.10;;;4.60;;
71265;SDS011;59030;52.052;8.550;2022-08-25T07:11:09;5.57;;;4.63;;
71265;SDS011;59030;52.052;8.550;2022-08-25T07:13:37;7.03;;;4.30;;
71265;SDS011;59030;52.052;8.550;2022-08-25T07:16:05;4.77;;;4.23;;
71265;SDS011;59030;52.052;8.550;2022-08-25T07:18:33;5.17;;;4.37;;
71265;SDS011;59030;52.052;8.550;2022-08-25T07:21:01;5.63;;;4.27;;
71265;SDS011;59030;52.052;8.550;2022-08-25T07:23:28;9.17;;;4.70;;
71265;SDS011;59030;52.052;8.550;2022-08-25T07:26:05;9.17;;;4.73;;
71265;SDS011;59030;52.052;8.550;2022-08-25T07:28:27;6.27;;;4.60;;
71265;SDS011;59030;52.052;8.550;2022-08-25T07:30:54;6.70;;;4.93;;
71265;SDS011;59030;52.052;8.550;2022-08-25T07:33:23;7.53;;;4.30;;
71265;SDS011;59030;52.052;8.550;2022-08-25T07:35:50;7.47;;;4.93;;
71265;SDS011;59030;52.052;8.550;2022-08-25T07:38:18;5.30;;;4.80;;
71265;SDS011;59030;52.052;8.550;2022-08-25T07:40:45;7.13;;;5.33;;
71265;SDS011;59030;52.052;8.550;2022-08-25T07:43:14;8.60;;;5.43;;
71265;SDS011;59030;52.052;8.550;2022-08-25T07:45:42;6.47;;;5.07;;
71265;SDS011;59030;52.052;8.550;2022-08-25T07:48:09;7.50;;;4.90;;
71265;SDS011;59030;52.052;8.550;2022-08-25T07:50:38;7.57;;;4.97;;
71265;SDS011;59030;52.052;8.550;2022-08-25T07:53:07;7.90;;;4.97;;
71265;SDS011;59030;52.052;8.550;2022-08-25T07:55:35;6.80;;;5.23;;
71265;SDS011;59030;52.052;8.550;2022-08-25T07:58:02;7.07;;;4.83;;
71265;SDS011;59030;52.052;8.550;2022-08-25T08:00:30;7.17;;;4.73;;
71265;SDS011;59030;52.052;8.550;2022-08-25T08:02:59;8.37;;;4.90;;
71265;SDS011;59030;52.052;8.550;2022-08-25T08:05:27;6.53;;;5.60;;
71265;SDS011;59030;52.052;8.550;2022-08-25T08:07:55;7.47;;;5.63;;
71265;SDS011;59030;52.052;8.550;2022-08-25T08:10:22;7.13;;;4.83;;
71265;SDS011;59030;52.052;8.550;2022-08-25T08:12:51;6.60;;;5.00;;
71265;SDS011;59030;52.052;8.550;2022-08-25T08:15:19;10.50;;;5.43;;
71265;SDS011;59030;52.052;8.550;2022-08-25T08:17:48;6.33;;;4.87;;
71265;SDS011;59030;52.052;8.550;2022-08-25T08:20:15;7.00;;;5.07;;
71265;SDS011;59030;52.052;8.550;2022-08-25T08:22:43;8.27;;;7.00;;
71265;SDS011;59030;52.052;8.550;2022-08-25T08:25:11;13.73;;;8.73;;
71265;SDS011;59030;52.052;8.550;2022-08-25T08:27:38;7.07;;;5.47;;
71265;SDS011;59030;52.052;8.550;2022-08-25T08:30:09;10.23;;;8.13;;
71265;SDS011;59030;52.052;8.550;2022-08-25T08:32:36;7.93;;;6.63;;
71265;SDS011;59030;52.052;8.550;2022-08-25T08:35:04;7.70;;;6.40;;
71265;SDS011;59030;52.052;8.550;2022-08-25T08:37:32;9.07;;;6.47;;
71265;SDS011;59030;52.052;8.550;2022-08-25T08:40:00;7.23;;;6.30;;
71265;SDS011;59030;52.052;8.550;2022-08-25T08:45:23;7.40;;;6.03;;
71265;SDS011;59030;52.052;8.550;2022-08-25T08:47:56;13.07;;;8.67;;
71265;SDS011;59030;52.052;8.550;2022-08-25T08:50:25;6.93;;;5.83;;
71265;SDS011;59030;52.052;8.550;2022-08-25T08:52:53;11.40;;;7.00;;
71265;SDS011;59030;52.052;8.550;2022-08-25T08:55:24;6.13;;;5.53;;
71265;SDS011;59030;52.052;8.550;2022-08-25T08:57:52;9.13;;;7.10;;
71265;SDS011;59030;52.052;8.550;2022-08-25T09:00:21;8.30;;;6.90;;
71265;SDS011;59030;52.052;8.550;2022-08-25T09:02:50;11.77;;;8.23;;
71265;SDS011;59030;52.052;8.550;2022-08-25T09:05:19;8.67;;;5.90;;
71265;SDS011;59030;52.052;8.550;2022-08-25T09:07:48;9.53;;;6.50;;
71265;SDS011;59030;52.052;8.550;2022-08-25T09:10:17;9.83;;;7.57;;
71265;SDS011;59030;52.052;8.550;2022-08-25T09:12:47;9.47;;;6.63;;
71265;SDS011;59030;52.052;8.550;2022-08-25T09:15:17;8.60;;;7.70;;
71265;SDS011;59030;52.052;8.550;2022-08-25T09:17:53;8.77;;;6.80;;
71265;SDS011;59030;52.052;8.550;2022-08-25T09:20:30;9.50;;;7.77;;
71265;SDS011;59030;52.052;8.550;2022-08-25T09:22:58;8.17;;;6.60;;
71265;SDS011;59030;52.052;8.550;2022-08-25T09:25:29;11.47;;;8.63;;
71265;SDS011;59030;52.052;8.550;2022-08-25T09:28:00;9.33;;;7.00;;
71265;SDS011;59030;52.052;8.550;2022-08-25T09:30:28;8.93;;;7.07;;
71265;SDS011;59030;52.052;8.550;2022-08-25T09:32:57;8.80;;;7.50;;
71265;SDS011;59030;52.052;8.550;2022-08-25T09:35:31;14.53;;;8.93;;
71265;SDS011;59030;52.052;8.550;2022-08-25T09:37:59;9.27;;;7.20;;
71265;SDS011;59030;52.052;8.550;2022-08-25T09:40:26;12.07;;;10.13;;
71265;SDS011;59030;52.052;8.550;2022-08-25T09:42:56;8.77;;;7.87;;
71265;SDS011;59030;52.052;8.550;2022-08-25T09:45:31;8.73;;;7.00;;
71265;SDS011;59030;52.052;8.550;2022-08-25T09:47:59;12.03;;;8.27;;
71265;SDS011;59030;52.052;8.550;2022-08-25T09:50:29;8.63;;;7.50;;
71265;SDS011;59030;52.052;8.550;2022-08-25T09:53:04;8.23;;;7.33;;
71265;SDS011;59030;52.052;8.550;2022-08-25T09:55:33;13.03;;;9.33;;
71265;SDS011;59030;52.052;8.550;2022-08-25T09:58:00;8.80;;;7.90;;
71265;SDS011;59030;52.052;8.550;2022-08-25T10:00:30;9.37;;;8.23;;
71265;SDS011;59030;52.052;8.550;2022-08-25T10:03:04;9.17;;;7.73;;
71265;SDS011;59030;52.052;8.550;2022-08-25T10:05:33;9.80;;;7.83;;
71265;SDS011;59030;52.052;8.550;2022-08-25T10:08:03;9.53;;;7.63;;
71265;SDS011;59030;52.052;8.550;2022-08-25T10:10:31;10.10;;;8.40;;
71265;SDS011;59030;52.052;8.550;2022-08-25T10:12:59;8.23;;;7.30;;
71265;SDS011;59030;52.052;8.550;2022-08-25T10:15:29;10.80;;;8.10;;
71265;SDS011;59030;52.052;8.550;2022-08-25T10:18:15;11.87;;;8.43;;
71265;SDS011;59030;52.052;8.550;2022-08-25T10:20:31;11.40;;;8.60;;
71265;SDS011;59030;52.052;8.550;2022-08-25T10:23:08;12.53;;;7.60;;
71265;SDS011;59030;52.052;8.550;2022-08-25T10:25:37;10.53;;;8.53;;
71265;SDS011;59030;52.052;8.550;2022-08-25T10:28:07;9.80;;;8.80;;
71265;SDS011;59030;52.052;8.550;2022-08-25T10:30:39;11.73;;;9.30;;
71265;SDS011;59030;52.052;8.550;2022-08-25T10:33:07;8.63;;;7.73;;
71265;SDS011;59030;52.052;8.550;2022-08-25T10:35:40;9.27;;;7.87;;
71265;SDS011;59030;52.052;8.550;2022-08-25T10:38:10;10.47;;;8.37;;
71265;SDS011;59030;52.052;8.550;2022-08-25T10:40:39;11.93;;;8.70;;
71265;SDS011;59030;52.052;8.550;2022-08-25T10:43:09;9.67;;;8.57;;
71265;SDS011;59030;52.052;8.550;2022-08-25T10:45:37;10.33;;;9.13;;
71265;SDS011;59030;52.052;8.550;2022-08-25T10:48:14;9.33;;;8.20;;
71265;SDS011;59030;52.052;8.550;2022-08-25T10:50:43;10.73;;;8.30;;
71265;SDS011;59030;52.052;8.550;2022-08-25T10:53:16;11.10;;;9.10;;
71265;SDS011;59030;52.052;8.550;2022-08-25T10:55:45;10.27;;;8.80;;
71265;SDS011;59030;52.052;8.550;2022-08-25T10:58:14;11.03;;;8.43;;
71265;SDS011;59030;52.052;8.550;2022-08-25T11:00:42;9.00;;;8.10;;
71265;SDS011;59030;52.052;8.550;2022-08-25T11:03:19;12.57;;;9.20;;
71265;SDS011;59030;52.052;8.550;2022-08-25T11:05:51;9.90;;;7.83;;
71265;SDS011;59030;52.052;8.550;2022-08-25T11:08:22;12.70;;;8.10;;
71265;SDS011;59030;52.052;8.550;2022-08-25T11:10:52;12.03;;;8.37;;
71265;SDS011;59030;52.052;8.550;2022-08-25T11:13:22;11.37;;;8.17;;
71265;SDS011;59030;52.052;8.550;2022-08-25T11:15:52;8.90;;;8.00;;
71265;SDS011;59030;52.052;8.550;2022-08-25T11:18:21;12.93;;;8.97;;
71265;SDS011;59030;52.052;8.550;2022-08-25T11:20:58;10.23;;;8.00;;
71265;SDS011;59030;52.052;8.550;2022-08-25T11:23:23;11.27;;;8.63;;
71265;SDS011;59030;52.052;8.550;2022-08-25T11:25:54;9.43;;;8.17;;
71265;SDS011;59030;52.052;8.550;2022-08-25T11:28:28;10.70;;;9.40;;
71265;SDS011;59030;52.052;8.550;2022-08-25T11:30:56;10.77;;;8.60;;
71265;SDS011;59030;52.052;8.550;2022-08-25T11:33:26;10.37;;;7.77;;
71265;SDS011;59030;52.052;8.550;2022-08-25T11:35:58;10.48;;;7.85;;
71265;SDS011;59030;52.052;8.550;2022-08-25T11:38:37;11.50;;;8.30;;
71265;SDS011;59030;52.052;8.550;2022-08-25T11:41:10;9.37;;;8.40;;
71265;SDS011;59030;52.052;8.550;2022-08-25T11:43:43;9.03;;;8.00;;
71265;SDS011;59030;52.052;8.550;2022-08-25T11:46:18;8.67;;;7.73;;
71265;SDS011;59030;52.052;8.550;2022-08-25T11:48:50;9.37;;;8.03;;
71265;SDS011;59030;52.052;8.550;2022-08-25T11:51:27;11.60;;;8.87;;
71265;SDS011;59030;52.052;8.550;2022-08-25T11:54:04;10.30;;;8.43;;
71265;SDS011;59030;52.052;8.550;2022-08-25T11:56:35;8.50;;;7.70;;
71265;SDS011;59030;52.052;8.550;2022-08-25T11:59:02;9.67;;;7.53;;
71265;SDS011;59030;52.052;8.550;2022-08-25T12:04:29;11.73;;;8.57;;
71265;SDS011;59030;52.052;8.550;2022-08-25T12:09:30;10.13;;;8.80;;
71265;SDS011;59030;52.052;8.550;2022-08-25T12:11:58;11.20;;;8.00;;
71265;SDS011;59030;52.052;8.550;2022-08-25T12:14:37;9.50;;;7.97;;
71265;SDS011;59030;52.052;8.550;2022-08-25T12:17:11;12.73;;;8.77;;
71265;SDS011;59030;52.052;8.550;2022-08-25T12:19:48;9.93;;;8.27;;
71265;SDS011;59030;52.052;8.550;2022-08-25T12:25:02;9.30;;;8.07;;
71265;SDS011;59030;52.052;8.550;2022-08-25T12:27:35;13.83;;;8.20;;
71265;SDS011;59030;52.052;8.550;2022-08-25T12:30:02;8.50;;;7.33;;
71265;SDS011;59030;52.052;8.550;2022-08-25T12:32:49;8.73;;;7.73;;
71265;SDS011;59030;52.052;8.550;2022-08-25T12:35:29;9.03;;;7.57;;
71265;SDS011;59030;52.052;8.550;2022-08-25T12:38:04;9.70;;;7.57;;
71265;SDS011;59030;52.052;8.550;2022-08-25T12:40:34;8.83;;;7.93;;
71265;SDS011;59030;52.052;8.550;2022-08-25T12:43:03;12.63;;;9.00;;
71265;SDS011;59030;52.052;8.550;2022-08-25T12:45:33;9.43;;;7.90;;
71265;SDS011;59030;52.052;8.550;2022-08-25T12:53:45;10.13;;;8.00;;
71265;SDS011;59030;52.052;8.550;2022-08-25T12:56:18;8.90;;;8.00;;
71265;SDS011;59030;52.052;8.550;2022-08-25T12:58:48;8.75;;;7.58;;
71265;SDS011;59030;52.052;8.550;2022-08-25T13:01:18;8.98;;;7.80;;
71265;SDS011;59030;52.052;8.550;2022-08-25T13:06:44;9.50;;;8.20;;
71265;SDS011;59030;52.052;8.550;2022-08-25T13:12:11;9.40;;;7.93;;
71265;SDS011;59030;52.052;8.550;2022-08-25T13:14:38;8.60;;;7.43;;
71265;SDS011;59030;52.052;8.550;2022-08-25T13:17:06;8.40;;;7.57;;
71265;SDS011;59030;52.052;8.550;2022-08-25T13:19:34;8.23;;;7.43;;
71265;SDS011;59030;52.052;8.550;2022-08-25T13:22:02;11.80;;;7.58;;
71265;SDS011;59030;52.052;8.550;2022-08-25T13:24:32;8.30;;;7.47;;
71265;SDS011;59030;52.052;8.550;2022-08-25T13:27:00;8.97;;;7.37;;
71265;SDS011;59030;52.052;8.550;2022-08-25T13:29:29;7.83;;;7.10;;
71265;SDS011;59030;52.052;8.550;2022-08-25T13:31:57;8.17;;;7.37;;
71265;SDS011;59030;52.052;8.550;2022-08-25T13:34:25;8.55;;;7.35;;
71265;SDS011;59030;52.052;8.550;2022-08-25T13:36:55;8.50;;;6.90;;
71265;SDS011;59030;52.052;8.550;2022-08-25T13:39:41;9.98;;;7.00;;
71265;SDS011;59030;52.052;8.550;2022-08-25T13:42:12;9.40;;;7.30;;
71265;SDS011;59030;52.052;8.550;2022-08-25T13:44:40;8.43;;;7.20;;
71265;SDS011;59030;52.052;8.550;2022-08-25T13:47:09;8.00;;;7.20;;
71265;SDS011;59030;52.052;8.550;2022-08-25T13:49:37;8.93;;;7.37;;
71265;SDS011;59030;52.052;8.550;2022-08-25T13:52:08;16.03;;;7.10;;
71265;SDS011;59030;52.052;8.550;2022-08-25T13:54:37;8.57;;;6.90;;
71265;SDS011;59030;52.052;8.550;2022-08-25T13:57:10;7.70;;;6.90;;
71265;SDS011;59030;52.052;8.550;2022-08-25T13:59:35;8.53;;;7.07;;
71265;SDS011;59030;52.052;8.550;2022-08-25T14:02:04;8.43;;;6.80;;
71265;SDS011;59030;52.052;8.550;2022-08-25T14:04:43;10.23;;;7.27;;
71265;SDS011;59030;52.052;8.550;2022-08-25T14:07:11;8.07;;;7.27;;
71265;SDS011;59030;52.052;8.550;2022-08-25T14:09:40;10.67;;;6.77;;
71265;SDS011;59030;52.052;8.550;2022-08-25T14:12:07;7.80;;;7.10;;
71265;SDS011;59030;52.052;8.550;2022-08-25T14:14:35;8.37;;;6.77;;
71265;SDS011;59030;52.052;8.550;2022-08-25T14:17:04;8.40;;;7.17;;
71265;SDS011;59030;52.052;8.550;2022-08-25T14:19:32;8.53;;;7.43;;
71265;SDS011;59030;52.052;8.550;2022-08-25T14:22:00;8.53;;;7.47;;
71265;SDS011;59030;52.052;8.550;2022-08-25T14:24:30;7.60;;;6.80;;
71265;SDS011;59030;52.052;8.550;2022-08-25T14:26:59;9.60;;;7.72;;
71265;SDS011;59030;52.052;8.550;2022-08-25T14:29:28;7.92;;;6.95;;
71265;SDS011;59030;52.052;8.550;2022-08-25T14:31:56;10.67;;;8.17;;
71265;SDS011;59030;52.052;8.550;2022-08-25T14:34:24;10.58;;;7.40;;
71265;SDS011;59030;52.052;8.550;2022-08-25T14:36:52;9.03;;;7.60;;
71265;SDS011;59030;52.052;8.550;2022-08-25T14:39:20;7.85;;;6.78;;
71265;SDS011;59030;52.052;8.550;2022-08-25T14:41:48;10.32;;;7.17;;
71265;SDS011;59030;52.052;8.550;2022-08-25T14:44:16;8.15;;;7.25;;
71265;SDS011;59030;52.052;8.550;2022-08-25T14:46:44;9.70;;;6.70;;
71265;SDS011;59030;52.052;8.550;2022-08-25T14:49:15;7.42;;;6.55;;
71265;SDS011;59030;52.052;8.550;2022-08-25T14:51:41;8.60;;;6.92;;
71265;SDS011;59030;52.052;8.550;2022-08-25T14:54:10;8.08;;;7.00;;
71265;SDS011;59030;52.052;8.550;2022-08-25T14:56:38;8.65;;;7.25;;
71265;SDS011;59030;52.052;8.550;2022-08-25T14:59:06;8.63;;;7.10;;
71265;SDS011;59030;52.052;8.550;2022-08-25T15:01:33;9.10;;;7.35;;
71265;SDS011;59030;52.052;8.550;2022-08-25T15:04:02;7.60;;;6.90;;
71265;SDS011;59030;52.052;8.550;2022-08-25T15:06:30;9.00;;;7.37;;
71265;SDS011;59030;52.052;8.550;2022-08-25T15:08:59;8.20;;;7.10;;
71265;SDS011;59030;52.052;8.550;2022-08-25T15:11:37;8.00;;;7.20;;
71265;SDS011;59030;52.052;8.550;2022-08-25T15:14:04;9.60;;;7.12;;
71265;SDS011;59030;52.052;8.550;2022-08-25T15:16:33;7.35;;;6.65;;
71265;SDS011;59030;52.052;8.550;2022-08-25T15:19:01;10.20;;;7.05;;